sensor_id;sensor_type;location;lat;lon;timestamp;P1;durP1;ratioP1;P2;durP2;ratioP2
29006;SDS011;16104;48.642;9.008;2022-12-20T00:01:21;12.50;;;6.57;;
29006;SDS011;16104;48.642;9.008;2022-12-20T00:06:19;13.18;;;7.20;;
29006;SDS011;16104;48.642;9.008;2022-12-20T00:11:15;9.02;;;6.47;;
29006;SDS011;16104;48.642;9.008;2022-12-20T00:16:11;12.57;;;6.85;;
29006;SDS011;16104;48.642;9.008;2022-12-20T00:21:10;9.52;;;6.20;;
29006;SDS011;16104;48.642;9.008;2022-12-20T00:26:08;10.75;;;6.75;;
29006;SDS011;16104;48.642;9.008;2022-12-20T00:31:06;9.07;;;6.10;;
29006;SDS011;16104;48.642;9.008;2022-12-20T00:36:03;12.02;;;6.50;;
29006;SDS011;16104;48.642;9.008;2022-12-20T00:41:03;10.45;;;6.00;;
29006;SDS011;16104;48.642;9.008;2022-12-20T00:46:01;10.27;;;6.13;;
29006;SDS011;16104;48.642;9.008;2022-12-20T00:51:00;10.73;;;6.35;;
29006;SDS011;16104;48.642;9.008;2022-12-20T00:55:58;10.93;;;7.32;;
29006;SDS011;16104;48.642;9.008;2022-12-20T02:03:08;9.32;;;6.50;;
29006;SDS011;16104;48.642;9.008;2022-12-20T02:08:06;10.20;;;6.50;;
29006;SDS011;16104;48.642;9.008;2022-12-20T02:13:06;8.35;;;5.95;;
29006;SDS011;16104;48.642;9.008;2022-12-20T03:04:27;7.32;;;5.40;;
29006;SDS011;16104;48.642;9.008;2022-12-20T03:09:29;8.25;;;5.10;;
29006;SDS011;16104;48.642;9.008;2022-12-20T03:14:26;11.90;;;6.10;;
29006;SDS011;16104;48.642;9.008;2022-12-20T04:05:10;7.78;;;4.90;;
29006;SDS011;16104;48.642;9.008;2022-12-20T04:10:06;7.97;;;5.47;;
29006;SDS011;16104;48.642;9.008;2022-12-20T04:15:02;9.95;;;5.78;;
29006;SDS011;16104;48.642;9.008;2022-12-20T04:19:58;7.90;;;5.03;;
29006;SDS011;16104;48.642;9.008;2022-12-20T04:25:13;12.52;;;5.07;;
29006;SDS011;16104;48.642;9.008;2022-12-20T04:30:10;8.05;;;5.38;;
29006;SDS011;16104;48.642;9.008;2022-12-20T04:35:07;11.45;;;5.47;;
29006;SDS011;16104;48.642;9.008;2022-12-20T04:40:03;9.07;;;6.22;;
29006;SDS011;16104;48.642;9.008;2022-12-20T04:44:59;10.23;;;5.95;;
29006;SDS011;16104;48.642;9.008;2022-12-20T04:49:54;12.88;;;7.25;;
29006;SDS011;16104;48.642;9.008;2022-12-20T04:54:50;11.55;;;6.57;;
29006;SDS011;16104;48.642;9.008;2022-12-20T04:59:46;12.77;;;6.18;;
29006;SDS011;16104;48.642;9.008;2022-12-20T05:04:41;10.32;;;6.30;;
29006;SDS011;16104;48.642;9.008;2022-12-20T05:09:37;10.00;;;5.82;;
29006;SDS011;16104;48.642;9.008;2022-12-20T05:14:32;10.73;;;5.55;;
29006;SDS011;16104;48.642;9.008;2022-12-20T05:19:28;9.75;;;6.13;;
29006;SDS011;16104;48.642;9.008;2022-12-20T05:24:23;9.98;;;7.05;;
29006;SDS011;16104;48.642;9.008;2022-12-20T05:29:37;11.38;;;6.70;;
29006;SDS011;16104;48.642;9.008;2022-12-20T05:34:33;9.27;;;6.57;;
29006;SDS011;16104;48.642;9.008;2022-12-20T05:39:29;9.55;;;6.10;;
29006;SDS011;16104;48.642;9.008;2022-12-20T05:44:24;12.45;;;6.07;;
29006;SDS011;16104;48.642;9.008;2022-12-20T05:49:20;8.55;;;5.68;;
29006;SDS011;16104;48.642;9.008;2022-12-20T05:54:15;10.98;;;5.90;;
29006;SDS011;16104;48.642;9.008;2022-12-20T05:59:11;9.77;;;5.82;;
29006;SDS011;16104;48.642;9.008;2022-12-20T06:04:06;10.75;;;6.38;;
29006;SDS011;16104;48.642;9.008;2022-12-20T06:09:02;12.27;;;6.20;;
29006;SDS011;16104;48.642;9.008;2022-12-20T06:13:57;6.97;;;4.88;;
29006;SDS011;16104;48.642;9.008;2022-12-20T06:18:53;8.05;;;4.80;;
29006;SDS011;16104;48.642;9.008;2022-12-20T06:23:48;8.73;;;4.95;;
29006;SDS011;16104;48.642;9.008;2022-12-20T06:28:44;8.73;;;5.18;;
29006;SDS011;16104;48.642;9.008;2022-12-20T06:33:40;9.00;;;4.22;;
29006;SDS011;16104;48.642;9.008;2022-12-20T06:38:35;7.95;;;4.55;;
29006;SDS011;16104;48.642;9.008;2022-12-20T06:43:31;7.75;;;4.45;;
29006;SDS011;16104;48.642;9.008;2022-12-20T06:48:26;8.35;;;4.57;;
29006;SDS011;16104;48.642;9.008;2022-12-20T06:53:22;11.05;;;4.78;;
29006;SDS011;16104;48.642;9.008;2022-12-20T06:58:18;8.13;;;4.57;;
29006;SDS011;16104;48.642;9.008;2022-12-20T07:03:14;5.72;;;4.30;;
29006;SDS011;16104;48.642;9.008;2022-12-20T07:08:09;5.68;;;4.10;;
29006;SDS011;16104;48.642;9.008;2022-12-20T07:13:05;7.28;;;4.15;;
29006;SDS011;16104;48.642;9.008;2022-12-20T07:18:00;6.07;;;4.10;;
29006;SDS011;16104;48.642;9.008;2022-12-20T07:22:57;8.07;;;4.80;;
29006;SDS011;16104;48.642;9.008;2022-12-20T07:27:52;7.15;;;4.43;;
29006;SDS011;16104;48.642;9.008;2022-12-20T07:32:48;7.47;;;4.60;;
29006;SDS011;16104;48.642;9.008;2022-12-20T07:37:43;7.82;;;4.90;;
29006;SDS011;16104;48.642;9.008;2022-12-20T07:42:39;8.73;;;5.00;;
29006;SDS011;16104;48.642;9.008;2022-12-20T07:47:34;9.57;;;4.97;;
29006;SDS011;16104;48.642;9.008;2022-12-20T07:52:30;9.55;;;5.50;;
29006;SDS011;16104;48.642;9.008;2022-12-20T07:57:29;8.95;;;5.35;;
29006;SDS011;16104;48.642;9.008;2022-12-20T08:02:31;6.93;;;5.07;;
29006;SDS011;16104;48.642;9.008;2022-12-20T08:07:33;11.07;;;6.15;;
29006;SDS011;16104;48.642;9.008;2022-12-20T08:12:32;9.70;;;5.57;;
29006;SDS011;16104;48.642;9.008;2022-12-20T08:17:27;5.95;;;4.05;;
29006;SDS011;16104;48.642;9.008;2022-12-20T08:22:23;8.10;;;4.53;;
29006;SDS011;16104;48.642;9.008;2022-12-20T08:27:18;5.47;;;4.13;;
29006;SDS011;16104;48.642;9.008;2022-12-20T08:32:14;8.52;;;4.38;;
29006;SDS011;16104;48.642;9.008;2022-12-20T08:37:10;7.03;;;4.45;;
29006;SDS011;16104;48.642;9.008;2022-12-20T08:42:05;8.57;;;4.43;;
29006;SDS011;16104;48.642;9.008;2022-12-20T08:47:01;7.10;;;4.28;;
29006;SDS011;16104;48.642;9.008;2022-12-20T08:51:57;8.90;;;4.53;;
29006;SDS011;16104;48.642;9.008;2022-12-20T08:56:52;5.75;;;3.63;;
29006;SDS011;16104;48.642;9.008;2022-12-20T09:01:48;20.08;;;12.75;;
29006;SDS011;16104;48.642;9.008;2022-12-20T09:06:44;10.75;;;8.15;;
29006;SDS011;16104;48.642;9.008;2022-12-20T09:11:39;8.95;;;6.68;;
29006;SDS011;16104;48.642;9.008;2022-12-20T09:16:35;6.47;;;4.90;;
29006;SDS011;16104;48.642;9.008;2022-12-20T09:21:31;6.57;;;4.30;;
29006;SDS011;16104;48.642;9.008;2022-12-20T09:26:27;9.00;;;5.68;;
29006;SDS011;16104;48.642;9.008;2022-12-20T09:31:23;8.50;;;4.30;;
29006;SDS011;16104;48.642;9.008;2022-12-20T09:36:20;5.95;;;3.72;;
29006;SDS011;16104;48.642;9.008;2022-12-20T09:41:23;6.38;;;4.10;;
29006;SDS011;16104;48.642;9.008;2022-12-20T09:46:22;5.05;;;3.75;;
29006;SDS011;16104;48.642;9.008;2022-12-20T09:57:10;5.72;;;3.90;;
29006;SDS011;16104;48.642;9.008;2022-12-20T10:01:52;5.53;;;3.70;;
29006;SDS011;16104;48.642;9.008;2022-12-20T10:23:31;6.78;;;3.78;;
29006;SDS011;16104;48.642;9.008;2022-12-20T10:28:34;5.18;;;3.65;;
29006;SDS011;16104;48.642;9.008;2022-12-20T10:33:30;4.95;;;3.47;;
29006;SDS011;16104;48.642;9.008;2022-12-20T10:38:26;5.45;;;3.47;;
29006;SDS011;16104;48.642;9.008;2022-12-20T10:43:42;6.82;;;4.05;;
29006;SDS011;16104;48.642;9.008;2022-12-20T10:48:41;6.72;;;3.70;;
29006;SDS011;16104;48.642;9.008;2022-12-20T10:58:58;5.35;;;3.58;;
29006;SDS011;16104;48.642;9.008;2022-12-20T11:03:59;5.30;;;3.70;;
29006;SDS011;16104;48.642;9.008;2022-12-20T11:14:17;5.75;;;3.33;;
29006;SDS011;16104;48.642;9.008;2022-12-20T11:40:54;3.93;;;3.10;;
29006;SDS011;16104;48.642;9.008;2022-12-20T11:46:24;5.32;;;2.97;;
29006;SDS011;16104;48.642;9.008;2022-12-20T11:56:40;4.03;;;2.95;;
29006;SDS011;16104;48.642;9.008;2022-12-20T12:01:46;5.03;;;3.38;;
29006;SDS011;16104;48.642;9.008;2022-12-20T12:07:18;5.35;;;3.05;;
29006;SDS011;16104;48.642;9.008;2022-12-20T12:18:06;7.07;;;3.47;;
29006;SDS011;16104;48.642;9.008;2022-12-20T12:28:24;6.45;;;3.63;;
29006;SDS011;16104;48.642;9.008;2022-12-20T12:33:27;4.57;;;3.30;;
29006;SDS011;16104;48.642;9.008;2022-12-20T12:49:46;5.47;;;3.10;;
29006;SDS011;16104;48.642;9.008;2022-12-20T12:54:44;4.53;;;2.97;;
29006;SDS011;16104;48.642;9.008;2022-12-20T12:59:41;10.57;;;4.00;;
29006;SDS011;16104;48.642;9.008;2022-12-20T13:09:47;4.82;;;2.83;;
29006;SDS011;16104;48.642;9.008;2022-12-20T13:14:46;5.93;;;2.90;;
29006;SDS011;16104;48.642;9.008;2022-12-20T13:48:18;5.97;;;3.60;;
29006;SDS011;16104;48.642;9.008;2022-12-20T13:53:25;5.32;;;3.10;;
29006;SDS011;16104;48.642;9.008;2022-12-20T13:58:23;5.70;;;3.60;;
29006;SDS011;16104;48.642;9.008;2022-12-20T14:03:24;5.45;;;3.60;;
29006;SDS011;16104;48.642;9.008;2022-12-20T14:08:22;4.95;;;3.17;;
29006;SDS011;16104;48.642;9.008;2022-12-20T14:13:25;6.72;;;3.28;;
29006;SDS011;16104;48.642;9.008;2022-12-20T14:18:22;4.47;;;3.30;;
29006;SDS011;16104;48.642;9.008;2022-12-20T14:23:20;5.20;;;3.28;;
29006;SDS011;16104;48.642;9.008;2022-12-20T14:28:21;8.18;;;3.28;;
29006;SDS011;16104;48.642;9.008;2022-12-20T14:33:45;4.85;;;3.33;;
29006;SDS011;16104;48.642;9.008;2022-12-20T14:38:41;10.27;;;3.38;;
29006;SDS011;16104;48.642;9.008;2022-12-20T14:43:39;7.05;;;3.42;;
29006;SDS011;16104;48.642;9.008;2022-12-20T14:48:35;4.88;;;3.00;;
29006;SDS011;16104;48.642;9.008;2022-12-20T14:53:30;5.18;;;3.17;;
29006;SDS011;16104;48.642;9.008;2022-12-20T14:58:27;6.70;;;3.15;;
29006;SDS011;16104;48.642;9.008;2022-12-20T15:03:27;6.93;;;3.55;;
29006;SDS011;16104;48.642;9.008;2022-12-20T15:08:24;10.68;;;4.70;;
29006;SDS011;16104;48.642;9.008;2022-12-20T15:18:27;6.60;;;5.13;;
29006;SDS011;16104;48.642;9.008;2022-12-20T15:23:22;8.55;;;5.38;;
29006;SDS011;16104;48.642;9.008;2022-12-20T15:28:19;7.72;;;4.75;;
29006;SDS011;16104;48.642;9.008;2022-12-20T15:33:17;6.90;;;3.85;;
29006;SDS011;16104;48.642;9.008;2022-12-20T15:38:20;10.25;;;3.60;;
29006;SDS011;16104;48.642;9.008;2022-12-20T15:43:18;8.38;;;3.88;;
29006;SDS011;16104;48.642;9.008;2022-12-20T15:48:16;5.57;;;3.88;;
29006;SDS011;16104;48.642;9.008;2022-12-20T15:53:14;5.93;;;3.50;;
29006;SDS011;16104;48.642;9.008;2022-12-20T15:58:11;4.72;;;3.42;;
29006;SDS011;16104;48.642;9.008;2022-12-20T16:03:11;4.85;;;3.60;;
29006;SDS011;16104;48.642;9.008;2022-12-20T16:08:10;4.80;;;3.10;;
29006;SDS011;16104;48.642;9.008;2022-12-20T16:13:06;4.82;;;3.22;;
29006;SDS011;16104;48.642;9.008;2022-12-20T16:18:04;9.73;;;3.50;;
29006;SDS011;16104;48.642;9.008;2022-12-20T16:23:00;5.22;;;3.30;;
29006;SDS011;16104;48.642;9.008;2022-12-20T16:27:57;4.38;;;3.15;;
29006;SDS011;16104;48.642;9.008;2022-12-20T16:32:53;5.78;;;3.85;;
29006;SDS011;16104;48.642;9.008;2022-12-20T16:37:49;6.38;;;3.55;;
29006;SDS011;16104;48.642;9.008;2022-12-20T16:42:44;7.80;;;4.13;;
29006;SDS011;16104;48.642;9.008;2022-12-20T16:47:40;10.35;;;4.30;;
29006;SDS011;16104;48.642;9.008;2022-12-20T16:52:35;6.45;;;3.20;;
29006;SDS011;16104;48.642;9.008;2022-12-20T16:57:31;5.43;;;3.67;;
29006;SDS011;16104;48.642;9.008;2022-12-20T17:02:28;6.28;;;3.58;;
29006;SDS011;16104;48.642;9.008;2022-12-20T17:07:26;6.20;;;3.40;;
29006;SDS011;16104;48.642;9.008;2022-12-20T17:12:22;5.00;;;3.28;;
29006;SDS011;16104;48.642;9.008;2022-12-20T17:17:17;6.22;;;4.43;;
29006;SDS011;16104;48.642;9.008;2022-12-20T17:22:13;8.02;;;4.07;;
29006;SDS011;16104;48.642;9.008;2022-12-20T17:27:11;5.32;;;3.50;;
29006;SDS011;16104;48.642;9.008;2022-12-20T17:32:15;4.88;;;3.38;;
29006;SDS011;16104;48.642;9.008;2022-12-20T17:37:14;6.83;;;3.37;;
29006;SDS011;16104;48.642;9.008;2022-12-20T17:42:12;5.43;;;3.28;;
29006;SDS011;16104;48.642;9.008;2022-12-20T17:47:07;7.22;;;3.70;;
29006;SDS011;16104;48.642;9.008;2022-12-20T17:52:03;5.88;;;3.47;;
29006;SDS011;16104;48.642;9.008;2022-12-20T17:56:58;5.80;;;4.00;;
29006;SDS011;16104;48.642;9.008;2022-12-20T18:01:54;7.60;;;4.03;;
29006;SDS011;16104;48.642;9.008;2022-12-20T18:06:49;4.75;;;3.40;;
29006;SDS011;16104;48.642;9.008;2022-12-20T18:11:46;6.00;;;4.15;;
29006;SDS011;16104;48.642;9.008;2022-12-20T18:16:42;7.03;;;3.60;;
29006;SDS011;16104;48.642;9.008;2022-12-20T18:21:38;5.90;;;3.63;;
29006;SDS011;16104;48.642;9.008;2022-12-20T18:26:34;5.03;;;3.33;;
29006;SDS011;16104;48.642;9.008;2022-12-20T18:31:31;7.40;;;3.75;;
29006;SDS011;16104;48.642;9.008;2022-12-20T18:36:28;6.68;;;3.50;;
29006;SDS011;16104;48.642;9.008;2022-12-20T18:41:27;7.00;;;3.50;;
29006;SDS011;16104;48.642;9.008;2022-12-20T18:46:23;5.32;;;3.95;;
29006;SDS011;16104;48.642;9.008;2022-12-20T18:51:20;6.90;;;3.80;;
29006;SDS011;16104;48.642;9.008;2022-12-20T18:56:21;5.22;;;3.63;;
29006;SDS011;16104;48.642;9.008;2022-12-20T19:01:23;7.15;;;3.97;;
29006;SDS011;16104;48.642;9.008;2022-12-20T19:06:21;5.65;;;3.72;;
29006;SDS011;16104;48.642;9.008;2022-12-20T19:11:18;5.65;;;3.95;;
29006;SDS011;16104;48.642;9.008;2022-12-20T19:16:18;5.77;;;3.63;;
29006;SDS011;16104;48.642;9.008;2022-12-20T19:21:17;6.45;;;3.42;;
29006;SDS011;16104;48.642;9.008;2022-12-20T19:26:18;4.63;;;3.40;;
29006;SDS011;16104;48.642;9.008;2022-12-20T19:31:17;7.05;;;3.75;;
29006;SDS011;16104;48.642;9.008;2022-12-20T19:36:21;6.25;;;3.33;;
29006;SDS011;16104;48.642;9.008;2022-12-20T19:41:18;5.63;;;3.50;;
29006;SDS011;16104;48.642;9.008;2022-12-20T19:46:14;6.53;;;3.80;;
29006;SDS011;16104;48.642;9.008;2022-12-20T19:51:10;4.85;;;3.45;;
29006;SDS011;16104;48.642;9.008;2022-12-20T19:56:07;6.97;;;3.78;;
29006;SDS011;16104;48.642;9.008;2022-12-20T20:01:03;8.07;;;4.20;;
29006;SDS011;16104;48.642;9.008;2022-12-20T20:06:01;5.43;;;3.20;;
29006;SDS011;16104;48.642;9.008;2022-12-20T20:10:58;5.10;;;3.17;;
29006;SDS011;16104;48.642;9.008;2022-12-20T20:15:55;4.85;;;3.45;;
29006;SDS011;16104;48.642;9.008;2022-12-20T20:20:53;5.68;;;3.65;;
29006;SDS011;16104;48.642;9.008;2022-12-20T20:25:51;5.95;;;4.07;;
29006;SDS011;16104;48.642;9.008;2022-12-20T20:30:48;4.97;;;3.92;;
29006;SDS011;16104;48.642;9.008;2022-12-20T20:35:54;4.78;;;3.95;;
29006;SDS011;16104;48.642;9.008;2022-12-20T20:40:54;9.33;;;4.60;;
29006;SDS011;16104;48.642;9.008;2022-12-20T20:45:50;5.78;;;4.13;;
29006;SDS011;16104;48.642;9.008;2022-12-20T20:50:46;7.13;;;4.57;;
29006;SDS011;16104;48.642;9.008;2022-12-20T20:55:41;9.27;;;4.50;;
29006;SDS011;16104;48.642;9.008;2022-12-20T21:00:37;5.45;;;4.40;;
29006;SDS011;16104;48.642;9.008;2022-12-20T21:05:32;7.07;;;4.18;;
29006;SDS011;16104;48.642;9.008;2022-12-20T21:10:28;7.72;;;4.38;;
29006;SDS011;16104;48.642;9.008;2022-12-20T21:15:23;6.43;;;4.13;;
29006;SDS011;16104;48.642;9.008;2022-12-20T21:20:21;9.07;;;5.03;;
29006;SDS011;16104;48.642;9.008;2022-12-20T21:25:17;7.05;;;4.35;;
29006;SDS011;16104;48.642;9.008;2022-12-20T21:30:13;5.03;;;3.88;;
29006;SDS011;16104;48.642;9.008;2022-12-20T21:35:08;6.18;;;3.88;;
29006;SDS011;16104;48.642;9.008;2022-12-20T21:40:04;5.68;;;3.78;;
29006;SDS011;16104;48.642;9.008;2022-12-20T21:45:00;6.38;;;4.93;;
29006;SDS011;16104;48.642;9.008;2022-12-20T21:49:56;7.05;;;5.40;;
29006;SDS011;16104;48.642;9.008;2022-12-20T21:54:51;7.15;;;4.80;;
29006;SDS011;16104;48.642;9.008;2022-12-20T21:59:47;6.65;;;4.70;;
29006;SDS011;16104;48.642;9.008;2022-12-20T22:04:42;8.68;;;4.30;;
29006;SDS011;16104;48.642;9.008;2022-12-20T22:09:38;6.97;;;4.47;;
29006;SDS011;16104;48.642;9.008;2022-12-20T22:14:34;5.25;;;4.25;;
29006;SDS011;16104;48.642;9.008;2022-12-20T22:19:29;9.02;;;5.78;;
29006;SDS011;16104;48.642;9.008;2022-12-20T22:24:25;7.47;;;5.20;;
29006;SDS011;16104;48.642;9.008;2022-12-20T22:29:20;6.53;;;5.25;;
29006;SDS011;16104;48.642;9.008;2022-12-20T22:34:16;8.13;;;5.75;;
29006;SDS011;16104;48.642;9.008;2022-12-20T22:39:11;5.50;;;4.45;;
29006;SDS011;16104;48.642;9.008;2022-12-20T22:44:08;5.80;;;3.63;;
29006;SDS011;16104;48.642;9.008;2022-12-20T22:49:03;6.63;;;4.95;;
29006;SDS011;16104;48.642;9.008;2022-12-20T22:53:59;6.90;;;6.20;;
29006;SDS011;16104;48.642;9.008;2022-12-20T22:58:54;5.93;;;3.65;;
29006;SDS011;16104;48.642;9.008;2022-12-20T23:03:50;5.85;;;4.47;;
29006;SDS011;16104;48.642;9.008;2022-12-20T23:08:46;6.82;;;4.90;;
29006;SDS011;16104;48.642;9.008;2022-12-20T23:13:42;5.75;;;4.18;;
29006;SDS011;16104;48.642;9.008;2022-12-20T23:18:56;5.47;;;3.70;;
29006;SDS011;16104;48.642;9.008;2022-12-20T23:23:53;4.82;;;3.58;;
29006;SDS011;16104;48.642;9.008;2022-12-20T23:28:49;4.82;;;3.55;;
29006;SDS011;16104;48.642;9.008;2022-12-20T23:33:44;4.32;;;3.30;;
29006;SDS011;16104;48.642;9.008;2022-12-20T23:38:40;4.85;;;3.13;;
29006;SDS011;16104;48.642;9.008;2022-12-20T23:43:36;6.30;;;4.10;;
29006;SDS011;16104;48.642;9.008;2022-12-20T23:48:31;5.75;;;3.05;;
29006;SDS011;16104;48.642;9.008;2022-12-20T23:53:28;4.55;;;3.15;;
29006;SDS011;16104;48.642;9.008;2022-12-20T23:58:23;4.55;;;2.83;;
